»·PEaware :: AAL484 KGEG-KPDX

AAL484 :: KGEG-KPDX

FLIGHT INFORMATION

Flight Status: Arrived
Operator:
American Airlines
More flights by this operator :: More flights under this callsign
Pilot: Levi W. (27922)
Aircraft: AIRBUS A319
(A319)
More flights by this aircraft type
Origin: KGEG Spokane Intl
United States
Destination: KPDX Portland Intl
United States
More flights between these airports :: More routes between these airports
Route: +GEG6 ZEGRO YENTL HHOOD4
File this flight plan on PilotEdge
Remarks:
Altitude:
(Current/Filed)
32,000ft
Speed:
(Current/Filed)
434kts
Departed: 27-Jul-20 01:07 PM
Arrived: 27-Jul-20 02:02 PM
Distance/Time
Traveled:
242nm/0:55
Distance/Time
To Go:
Arrived

Flight Plot

Page will automatically refresh every two minutes.


Map Options




Map Legend


Flown Route
Filed Route
Departure Airport
Arrival Airport
Navaid (VOR, NDB)
Fix

Horizontal Profiles

Position Reports

Time Latitude Longitude Heading Altitude Ground
Speed
27-Jul-20 12:48 47.624461 -117.535432 311 2392ft 0kts
27-Jul-20 12:49 47.624461 -117.535432 311 2392ft 0kts
27-Jul-20 12:50 47.624461 -117.535432 311 2392ft 0kts
27-Jul-20 12:51 47.624461 -117.535432 311 2392ft 0kts
27-Jul-20 12:52 47.624461 -117.535432 311 2392ft 0kts
27-Jul-20 12:53 47.624461 -117.535432 311 2392ft 0kts
27-Jul-20 12:54 47.624461 -117.535432 311 2392ft 0kts
27-Jul-20 12:55 47.624412 -117.535353 311 2392ft 2kts
27-Jul-20 12:56 47.624565 -117.534839 159 2392ft 2kts
27-Jul-20 12:57 47.624681 -117.534975 133 2392ft 0kts
27-Jul-20 12:58 47.624681 -117.534975 133 2392ft 0kts
27-Jul-20 12:59 47.625086 -117.531699 69 2392ft 14kts
27-Jul-20 13:00 47.629005 -117.525656 45 2392ft 24kts
27-Jul-20 13:01 47.632310 -117.520426 81 2392ft 0kts
27-Jul-20 13:02 47.632310 -117.520426 81 2392ft 0kts
27-Jul-20 13:03 47.632310 -117.520426 81 2392ft 0kts
27-Jul-20 13:04 47.632310 -117.520426 81 2392ft 0kts
27-Jul-20 13:05 47.631253 -117.518538 136 2392ft 0kts
27-Jul-20 13:06 47.622390 -117.531599 225 2414ft 168kts
27-Jul-20 13:07 47.588664 -117.584929 222 5665ft 180kts
27-Jul-20 13:08 47.552941 -117.639518 230 7906ft 209kts
27-Jul-20 13:09 47.510658 -117.714814 229 9835ft 269kts
27-Jul-20 13:10 47.460167 -117.803803 230 12256ft 309kts
27-Jul-20 13:11 47.407004 -117.913314 233 15003ft 338kts
27-Jul-20 13:12 47.351833 -118.028186 233 17876ft 352kts
27-Jul-20 13:13 47.294071 -118.147813 233 20503ft 366kts
27-Jul-20 13:14 47.233929 -118.271822 232 22911ft 380kts
27-Jul-20 13:15 47.171398 -118.400176 232 25081ft 393kts
27-Jul-20 13:16 47.106997 -118.531711 232 27033ft 404kts
27-Jul-20 13:17 47.041314 -118.665251 231 28769ft 414kts
27-Jul-20 13:18 46.973233 -118.803428 231 30344ft 424kts
27-Jul-20 13:19 46.903319 -118.944218 231 31766ft 432kts
27-Jul-20 13:20 46.831991 -119.086238 231 32010ft 433kts
27-Jul-20 13:21 46.760856 -119.227745 231 31991ft 434kts
27-Jul-20 13:22 46.689363 -119.369466 231 31985ft 434kts
27-Jul-20 13:23 46.617757 -119.510709 231 31983ft 435kts
27-Jul-20 13:24 46.545918 -119.651716 230 31983ft 435kts
27-Jul-20 13:25 46.473867 -119.793027 230 31983ft 435kts
27-Jul-20 13:26 46.402142 -119.934000 230 31983ft 436kts
27-Jul-20 13:27 46.330149 -120.075667 230 31984ft 436kts
27-Jul-20 13:28 46.258377 -120.216521 231 31987ft 436kts
27-Jul-20 13:29 46.186487 -120.357448 231 31989ft 436kts
27-Jul-20 13:30 46.114796 -120.497885 231 31980ft 436kts
27-Jul-20 13:31 46.043849 -120.636508 231 30523ft 428kts
27-Jul-20 13:32 45.974499 -120.772729 230 28153ft 425kts
27-Jul-20 13:33 45.904830 -120.908818 231 25594ft 424kts
27-Jul-20 13:34 45.834918 -121.043533 230 23018ft 418kts
27-Jul-20 13:35 45.762738 -121.171620 228 20435ft 408kts
27-Jul-20 13:36 45.689291 -121.293005 228 17551ft 404kts
27-Jul-20 13:37 45.616072 -121.412398 230 14572ft 396kts
27-Jul-20 13:38 45.573988 -121.547499 253 13021ft 351kts
27-Jul-20 13:39 45.542189 -121.669508 248 12281ft 315kts
27-Jul-20 13:40 45.531922 -121.786159 272 11290ft 294kts
27-Jul-20 13:41 45.536316 -121.902567 272 10299ft 294kts
27-Jul-20 13:42 45.550568 -122.016871 286 9311ft 293kts
27-Jul-20 13:43 45.573983 -122.128008 286 9009ft 293kts
27-Jul-20 13:44 45.597175 -122.239650 286 9003ft 293kts
27-Jul-20 13:45 45.620182 -122.351296 286 8047ft 289kts
27-Jul-20 13:46 45.642547 -122.457674 290 7073ft 272kts
27-Jul-20 13:47 45.675342 -122.552549 297 5882ft 261kts
27-Jul-20 13:48 45.706628 -122.639284 297 5248ft 233kts
27-Jul-20 13:49 45.734463 -122.716436 296 4472ft 202kts
27-Jul-20 13:51 45.760016 -122.787378 296 3235ft 201kts
27-Jul-20 13:52 45.760710 -122.855462 214 3018ft 193kts
27-Jul-20 13:53 45.718308 -122.899331 215 2982ft 170kts
27-Jul-20 13:54 45.679936 -122.939113 214 3011ft 169kts
27-Jul-20 13:55 45.651442 -122.906037 82 3006ft 174kts
27-Jul-20 13:56 45.670677 -122.841919 83 2991ft 175kts
27-Jul-20 13:57 45.660094 -122.785415 123 2613ft 140kts
27-Jul-20 13:58 45.640519 -122.737781 120 1879ft 138kts
27-Jul-20 13:59 45.621622 -122.689529 120 1141ft 140kts
27-Jul-20 14:00 45.602955 -122.641189 120 394ft 138kts
27-Jul-20 14:01 45.586883 -122.600266 118 32ft 49kts
27-Jul-20 14:02 45.588703 -122.598144 325 32ft 13kts

Navigation Log

Ident Type
Flight plan parsing failed, navigation log unavailable